Nissequogue, New York
Current Conditions -  °F | °C
As of 8:56 PM on Friday 24 Oct 2014 (Local Time) from KISP Reporting Station
Broken Clouds Broken Clouds  
Wind Chill: 53°   Ceiling: 4800
Heat Index: 53°   Visibility: 10mi
Dew Point: 46°   Wind: 3mph
Humidity: 77%   Direction: 300°WNW
Pressure: 29.8"   Gusts: NA
Location:  40.8903°N, 73.169°W
Report Text: KISP 250056Z 30003KT 10SM BKN048 12/08 A2980 RMK AO2 SLP089 T01170078
Loading
Personal Weather Stations






























Interactive Weather Map
Tropical Storm Tracking
New forecast layout! Learn more

10-Day Weather Forecast

Advertisements
Track Severe Weather on mobile